createdAt,value
2018-05-18T00:01:53.894Z,21.93
2018-05-18T00:04:28.524Z,22.23
2018-05-18T00:06:57.825Z,27.50
2018-05-18T00:09:32.844Z,25.27
2018-05-18T00:12:01.264Z,26.50
2018-05-18T00:14:37.283Z,26.63
2018-05-18T00:17:07.655Z,27.87
2018-05-18T00:19:41.021Z,27.43
2018-05-18T00:22:15.795Z,25.50
2018-05-18T00:24:45.175Z,26.93
2018-05-18T00:27:16.244Z,28.10
2018-05-18T00:29:54.389Z,29.77
2018-05-18T00:32:22.661Z,30.87
2018-05-18T00:34:51.962Z,28.27
2018-05-18T00:37:22.210Z,30.50
2018-05-18T00:39:56.457Z,29.13
2018-05-18T00:42:30.771Z,27.43
2018-05-18T00:45:06.335Z,26.43
2018-05-18T00:47:43.143Z,26.23
2018-05-18T00:50:25.640Z,28.90
2018-05-18T00:52:58.059Z,26.63
2018-05-18T00:55:43.622Z,27.33
2018-05-18T00:58:19.473Z,23.40
2018-05-18T01:00:51.649Z,24.10
2018-05-18T01:03:43.536Z,25.90
2018-05-18T01:06:17.280Z,23.83
2018-05-18T01:08:59.312Z,22.97
2018-05-18T01:11:34.465Z,23.77
2018-05-18T01:14:08.641Z,22.00
2018-05-18T01:16:39.653Z,26.57
2018-05-18T01:19:15.654Z,25.60
2018-05-18T01:21:55.629Z,23.33
2018-05-18T01:24:42.100Z,26.27
2018-05-18T01:27:18.195Z,24.57
2018-05-18T01:29:46.570Z,25.80
2018-05-18T01:32:16.845Z,21.03
2018-05-18T01:34:45.103Z,23.90
2018-05-18T01:37:18.341Z,23.83
2018-05-18T01:39:53.632Z,19.87
2018-05-18T01:42:25.871Z,20.90
2018-05-18T01:44:58.995Z,20.17
2018-05-18T01:47:34.557Z,22.50
2018-05-18T01:50:05.339Z,22.07
2018-05-18T01:52:48.974Z,24.17
2018-05-18T01:55:17.359Z,21.70
2018-05-18T01:57:51.032Z,21.50
2018-05-18T02:00:20.090Z,22.23
2018-05-18T02:02:52.133Z,21.23
2018-05-18T02:05:24.030Z,26.57
2018-05-18T02:07:56.007Z,24.27
2018-05-18T02:10:27.054Z,22.07
2018-05-18T02:12:57.070Z,25.00
2018-05-18T02:15:27.159Z,19.37
2018-05-18T02:18:00.058Z,20.90
2018-05-18T02:20:30.135Z,22.33
2018-05-18T02:23:02.520Z,22.37
2018-05-18T02:25:37.752Z,23.27
2018-05-18T02:28:06.101Z,27.80
2018-05-18T02:30:45.157Z,26.47
2018-05-18T02:33:14.415Z,26.57
2018-05-18T02:35:44.500Z,27.03
2018-05-18T02:38:16.797Z,22.37
2018-05-18T02:40:45.059Z,19.73
2018-05-18T02:43:13.510Z,21.27
2018-05-18T02:45:43.783Z,24.13
2018-05-18T02:48:12.843Z,22.67
2018-05-18T02:51:00.683Z,23.90
2018-05-18T02:53:32.333Z,23.90
2018-05-18T02:56:06.104Z,23.90
2018-05-18T02:58:40.619Z,23.67
2018-05-18T03:01:13.779Z,23.33
2018-05-18T03:03:42.041Z,22.00
2018-05-18T03:06:10.411Z,23.20
2018-05-18T03:08:38.723Z,22.30
2018-05-18T03:11:07.852Z,21.70
2018-05-18T03:13:36.883Z,25.97
2018-05-18T03:16:08.975Z,19.50
2018-05-18T03:18:38.067Z,22.10
2018-05-18T03:21:07.166Z,19.63
2018-05-18T03:23:40.778Z,25.13
2018-05-18T03:26:09.023Z,19.20
2018-05-18T03:28:37.295Z,19.20
2018-05-18T03:31:06.734Z,22.97
2018-05-18T03:33:36.075Z,18.40
2018-05-18T03:36:21.970Z,21.17
2018-05-18T03:38:55.182Z,21.67
2018-05-18T03:41:29.212Z,20.27
2018-05-18T03:44:10.738Z,22.40
2018-05-18T03:46:39.091Z,19.67
2018-05-18T03:49:10.118Z,22.03
2018-05-18T03:51:43.626Z,23.13
2018-05-18T03:54:18.810Z,22.20
2018-05-18T03:56:51.019Z,19.77
2018-05-18T03:59:28.465Z,21.47
2018-05-18T04:02:16.745Z,20.03
2018-05-18T04:05:04.584Z,21.00
2018-05-18T04:07:55.500Z,19.20
2018-05-18T04:10:25.865Z,20.60
2018-05-18T04:12:59.595Z,20.90
2018-05-18T04:15:27.987Z,21.67
2018-05-18T04:17:59.546Z,22.97
2018-05-18T04:20:29.484Z,24.13
2018-05-18T04:22:58.755Z,26.83
2018-05-18T04:25:28.052Z,21.80
2018-05-18T04:27:56.391Z,21.80
2018-05-18T04:30:24.810Z,20.83
2018-05-18T04:32:57.729Z,22.17
2018-05-18T04:35:27.872Z,24.67
2018-05-18T04:38:02.897Z,27.67
2018-05-18T04:40:32.240Z,29.87
2018-05-18T04:43:01.606Z,24.43
2018-05-18T04:45:32.933Z,24.83
2018-05-18T04:48:03.260Z,30.87
2018-05-18T04:50:40.413Z,29.23
2018-05-18T04:53:15.219Z,30.53
2018-05-18T04:55:50.501Z,30.93
2018-05-18T04:58:19.547Z,29.00
2018-05-18T05:00:58.499Z,31.73
2018-05-18T05:03:45.766Z,32.30
2018-05-18T05:06:16.823Z,35.00
2018-05-18T05:08:49.235Z,34.27
2018-05-18T05:11:17.559Z,33.13
2018-05-18T05:13:47.536Z,34.93
2018-05-18T05:16:15.814Z,39.37
2018-05-18T05:18:44.119Z,37.00
2018-05-18T05:21:20.431Z,36.47
2018-05-18T05:23:54.646Z,41.30
2018-05-18T05:26:27.736Z,35.13
2018-05-18T05:28:57.202Z,38.33
2018-05-18T05:31:25.491Z,39.57
2018-05-18T05:33:57.470Z,39.83
2018-05-18T05:36:26.904Z,39.90
2018-05-18T05:39:08.850Z,35.93
2018-05-18T05:41:43.814Z,38.93
2018-05-18T05:44:12.227Z,38.03
2018-05-18T05:46:57.328Z,34.83
2018-05-18T05:49:25.688Z,33.83
2018-05-18T05:51:55.794Z,35.33
2018-05-18T05:54:24.470Z,38.67
2018-05-18T05:56:54.366Z,34.53
2018-05-18T05:59:23.418Z,34.67
2018-05-18T06:01:52.700Z,33.20
2018-05-18T06:04:22.531Z,29.97
2018-05-18T06:06:52.797Z,36.93
2018-05-18T06:09:28.779Z,31.60
2018-05-18T06:12:01.649Z,31.00
2018-05-18T06:14:47.001Z,34.47
2018-05-18T06:17:28.784Z,33.23
2018-05-18T06:19:57.405Z,32.77
2018-05-18T06:22:25.688Z,29.80
2018-05-18T06:25:06.660Z,28.40
2018-05-18T06:27:44.260Z,31.07
2018-05-18T06:30:12.565Z,31.67
2018-05-18T06:32:48.758Z,28.13
2018-05-18T06:35:18.103Z,33.30
2018-05-18T06:37:51.978Z,28.47
2018-05-18T06:40:25.127Z,28.73
2018-05-18T06:43:03.485Z,29.87
2018-05-18T06:45:47.111Z,26.87
2018-05-18T06:48:18.661Z,27.60
2018-05-18T06:50:47.960Z,25.87
2018-05-18T06:53:17.638Z,27.43
2018-05-18T06:56:16.219Z,26.73
2018-05-18T06:58:44.630Z,32.53
2018-05-18T07:01:19.911Z,26.97
2018-05-18T07:03:48.320Z,26.73
2018-05-18T07:06:30.103Z,29.67
2018-05-18T07:09:10.599Z,30.13
2018-05-18T07:11:52.334Z,28.70
2018-05-18T07:14:36.384Z,27.63
2018-05-18T07:17:11.226Z,25.77
2018-05-18T07:19:41.358Z,29.10
2018-05-18T07:22:22.768Z,27.20
2018-05-18T07:24:57.154Z,31.60
2018-05-18T07:27:27.637Z,31.37
2018-05-18T07:30:13.000Z,33.67
2018-05-18T07:32:41.345Z,31.27
2018-05-18T07:35:11.494Z,32.17
2018-05-18T07:37:43.022Z,25.87
2018-05-18T07:40:31.046Z,33.97
2018-05-18T07:43:08.199Z,31.60
2018-05-18T07:45:55.549Z,28.37
2018-05-18T07:48:24.931Z,29.97
2018-05-18T07:50:53.316Z,31.73
2018-05-18T07:56:09.423Z,28.50
2018-05-18T07:58:38.909Z,26.70
2018-05-18T08:01:10.942Z,31.27
2018-05-18T08:03:46.315Z,30.27
2018-05-18T08:06:16.761Z,38.10
2018-05-18T08:08:46.078Z,38.50
2018-05-18T08:11:18.958Z,31.10
2018-05-18T08:13:50.705Z,32.63
2018-05-18T08:16:21.088Z,34.97
2018-05-18T08:18:55.383Z,31.87
2018-05-18T08:21:28.294Z,32.27
2018-05-18T08:23:59.782Z,32.67
2018-05-18T08:26:31.697Z,38.63
2018-05-18T08:29:18.648Z,33.87
2018-05-18T08:31:56.905Z,34.20
2018-05-18T08:34:32.003Z,31.67
2018-05-18T08:37:00.399Z,33.13
2018-05-18T08:39:29.782Z,33.27
2018-05-18T08:42:00.078Z,37.80
2018-05-18T08:44:35.748Z,35.40
2018-05-18T08:47:05.977Z,32.50
2018-05-18T08:49:34.259Z,35.93
2018-05-18T08:52:03.585Z,34.70
2018-05-18T08:54:37.306Z,33.47
2018-05-18T08:57:18.851Z,31.47
2018-05-18T08:59:52.089Z,30.33
2018-05-18T09:02:35.051Z,32.43
2018-05-18T09:05:07.323Z,29.03
2018-05-18T09:07:42.699Z,30.77
2018-05-18T09:10:12.833Z,30.77
2018-05-18T09:12:43.868Z,35.07
2018-05-18T09:15:17.472Z,32.53
2018-05-18T09:17:50.466Z,31.58
2018-05-18T09:20:21.525Z,26.05
2018-05-18T09:22:49.852Z,27.60
2018-05-18T09:25:21.822Z,30.88
2018-05-18T09:27:50.327Z,26.02
2018-05-18T09:30:19.746Z,28.40
2018-05-18T09:32:49.029Z,28.90
2018-05-18T09:35:17.271Z,24.15
2018-05-18T09:37:45.558Z,27.80
2018-05-18T09:40:14.068Z,30.00
2018-05-18T09:42:43.333Z,30.27
2018-05-18T09:45:12.710Z,28.35
2018-05-18T09:47:44.649Z,32.03
2018-05-18T09:50:18.786Z,43.92
2018-05-18T09:52:47.238Z,34.75
2018-05-18T09:55:23.841Z,30.03
2018-05-18T09:58:07.011Z,36.80
2018-05-18T10:00:36.207Z,25.55
2018-05-18T10:03:05.379Z,24.35
2018-05-18T10:05:34.503Z,24.27
2018-05-18T10:08:05.515Z,27.48
2018-05-18T10:10:33.802Z,26.12
2018-05-18T10:13:02.194Z,27.27
2018-05-18T10:15:33.367Z,20.10
2018-05-18T10:18:05.030Z,23.60
2018-05-18T10:20:33.485Z,27.65
2018-05-18T10:23:02.784Z,24.00
2018-05-18T10:25:33.843Z,25.70
2018-05-18T10:28:27.919Z,24.10
2018-05-18T10:31:00.852Z,34.22
2018-05-18T10:33:34.821Z,22.98
2018-05-18T10:36:07.812Z,23.65
2018-05-18T10:38:37.571Z,20.00
2018-05-18T10:41:09.107Z,25.17
2018-05-18T10:43:37.385Z,20.02
2018-05-18T10:46:12.435Z,18.40
2018-05-18T10:48:41.715Z,20.23
2018-05-18T10:51:15.415Z,23.70
2018-05-18T10:53:48.298Z,17.27
2018-05-18T10:56:21.784Z,20.23
2018-05-18T10:59:06.996Z,22.05
2018-05-18T11:01:35.305Z,19.90
2018-05-18T11:04:04.677Z,20.35
2018-05-18T11:06:33.065Z,19.85
2018-05-18T11:09:06.626Z,16.98
2018-05-18T11:11:35.844Z,18.12
2018-05-18T11:14:12.084Z,14.98
2018-05-18T11:16:42.368Z,16.60
2018-05-18T11:19:12.510Z,17.40
2018-05-18T11:21:47.141Z,13.18
2018-05-18T11:24:16.156Z,12.32
2018-05-18T11:26:47.926Z,19.15
2018-05-18T11:29:22.041Z,18.45
2018-05-18T11:31:52.663Z,17.23
2018-05-18T11:34:21.007Z,17.85
2018-05-18T11:36:49.451Z,15.57
2018-05-18T11:39:19.774Z,17.05
2018-05-18T11:42:04.764Z,17.05
2018-05-18T11:44:34.041Z,16.75
2018-05-18T11:47:06.992Z,15.10
2018-05-18T11:49:41.212Z,15.57
2018-05-18T11:52:18.032Z,17.67
2018-05-18T11:54:50.618Z,11.57
2018-05-18T11:57:19.690Z,13.18
2018-05-18T11:59:49.136Z,11.45
2018-05-18T12:02:19.571Z,9.85
2018-05-18T12:04:49.671Z,11.35
2018-05-18T12:07:19.962Z,12.18
2018-05-18T12:09:50.182Z,12.43
2018-05-18T12:12:24.799Z,10.10
2018-05-18T12:15:01.073Z,11.30
2018-05-18T12:17:33.036Z,10.05
2018-05-18T12:20:02.288Z,13.57
2018-05-18T12:22:38.238Z,14.45
2018-05-18T12:25:08.714Z,13.38
2018-05-18T12:27:50.316Z,13.80
2018-05-18T12:30:19.449Z,11.48
2018-05-18T12:32:48.771Z,10.43
2018-05-18T12:35:24.171Z,11.85
2018-05-18T12:37:53.679Z,12.43
2018-05-18T12:40:22.756Z,11.30
2018-05-18T12:42:51.005Z,11.07
2018-05-18T12:45:26.875Z,10.70
2018-05-18T12:47:56.180Z,11.73
2018-05-18T12:50:27.777Z,10.10
2018-05-18T12:53:00.611Z,10.15
2018-05-18T12:55:35.072Z,9.75
2018-05-18T12:58:08.223Z,10.73
2018-05-18T13:00:55.702Z,11.10
2018-05-18T13:03:36.017Z,8.40
2018-05-18T13:06:08.206Z,8.52
2018-05-18T13:08:38.429Z,10.13
2018-05-18T13:11:09.464Z,8.73
2018-05-18T13:13:39.588Z,13.25
2018-05-18T13:16:10.628Z,8.50
2018-05-18T13:18:40.746Z,6.60
2018-05-18T13:21:16.246Z,7.85
2018-05-18T13:23:45.599Z,7.15
2018-05-18T13:26:26.533Z,7.07
2018-05-18T13:29:05.500Z,6.95
2018-05-18T13:31:33.953Z,7.68
2018-05-18T13:34:04.287Z,6.37
2018-05-18T13:36:32.550Z,8.23
2018-05-18T13:39:10.426Z,9.18
2018-05-18T13:41:45.286Z,8.90
2018-05-18T13:44:17.776Z,6.57
2018-05-18T13:46:56.627Z,6.40
2018-05-18T13:49:28.814Z,6.10
2018-05-18T13:52:01.484Z,6.45
2018-05-18T13:54:32.117Z,7.22
2018-05-18T13:57:03.909Z,7.32
2018-05-18T13:59:42.815Z,9.77
2018-05-18T14:02:26.107Z,8.30
2018-05-18T14:04:57.822Z,6.10
2018-05-18T14:07:31.329Z,8.70
2018-05-18T14:10:03.105Z,9.90
2018-05-18T14:12:33.895Z,6.68
2018-05-18T14:15:06.827Z,8.77
2018-05-18T14:17:41.715Z,10.30
2018-05-18T14:20:23.266Z,6.70
2018-05-18T14:23:00.420Z,7.75
2018-05-18T14:25:31.109Z,7.12
2018-05-18T14:28:06.408Z,7.37
2018-05-18T14:30:55.045Z,8.32
2018-05-18T14:33:40.543Z,7.90
2018-05-18T14:36:15.469Z,7.05
2018-05-18T14:38:46.587Z,7.37
2018-05-18T14:41:22.653Z,8.52
2018-05-18T14:44:13.817Z,7.45
2018-05-18T14:46:43.391Z,8.25
2018-05-18T14:52:07.058Z,8.05
2018-05-18T14:54:36.548Z,7.65
2018-05-18T14:57:12.108Z,9.95
2018-05-18T14:59:54.546Z,7.85
2018-05-18T15:02:28.028Z,7.12
2018-05-18T15:05:11.368Z,6.45
2018-05-18T15:07:52.412Z,6.80
2018-05-18T15:10:22.631Z,7.72
2018-05-18T15:12:50.895Z,5.05
2018-05-18T15:15:24.347Z,6.95
2018-05-18T15:18:16.577Z,7.30
2018-05-18T15:23:48.439Z,6.93
2018-05-18T15:26:22.531Z,8.32
2018-05-18T15:28:58.669Z,11.52
2018-05-18T15:31:28.517Z,8.25
2018-05-18T15:34:14.637Z,8.55
2018-05-18T15:36:43.954Z,9.25
2018-05-18T15:39:27.950Z,7.85
2018-05-18T15:41:58.944Z,10.82
2018-05-18T15:44:29.857Z,9.73
2018-05-18T15:47:05.856Z,13.93
2018-05-18T15:52:51.667Z,11.70
2018-05-18T15:55:23.884Z,10.88
2018-05-18T15:57:56.673Z,12.10
2018-05-18T16:00:33.526Z,9.60
2018-05-18T16:03:02.100Z,9.35
2018-05-18T16:11:24.919Z,12.47
2018-05-18T16:13:53.491Z,11.40
2018-05-18T16:16:27.073Z,10.07
2018-05-18T16:18:55.417Z,18.03
2018-05-18T16:21:23.831Z,13.40
2018-05-18T16:23:54.218Z,11.80
2018-05-18T16:26:45.861Z,12.70
2018-05-18T16:29:16.538Z,14.17
2018-05-18T16:31:44.820Z,10.60
2018-05-18T16:34:13.207Z,14.93
2018-05-18T16:36:44.235Z,8.63
2018-05-18T16:39:13.584Z,10.00
2018-05-18T16:41:43.545Z,9.13
2018-05-18T16:44:12.707Z,11.47
2018-05-18T16:46:41.950Z,9.00
2018-05-18T16:49:14.960Z,13.00
2018-05-18T16:51:44.019Z,9.57
2018-05-18T16:54:17.267Z,9.07
2018-05-18T16:56:58.199Z,12.27
2018-05-18T16:59:34.248Z,10.53
2018-05-18T17:02:06.428Z,9.33
2018-05-18T17:04:34.696Z,8.35
2018-05-18T17:07:07.562Z,7.37
2018-05-18T17:09:42.395Z,7.62
2018-05-18T17:12:18.448Z,8.90
2018-05-18T17:14:52.768Z,8.60
2018-05-18T17:17:26.183Z,12.50
2018-05-18T17:20:08.508Z,9.90
2018-05-18T17:22:57.467Z,9.97
2018-05-18T17:25:33.134Z,11.83
2018-05-18T17:28:06.114Z,10.33
2018-05-18T17:30:35.483Z,9.00
2018-05-18T17:33:07.810Z,9.30
2018-05-18T17:38:18.635Z,9.60
2018-05-18T17:40:50.422Z,9.67
2018-05-18T17:43:19.718Z,8.60
2018-05-18T17:45:58.333Z,9.20
2018-05-18T17:48:30.520Z,12.77
2018-05-18T17:50:58.915Z,9.03
2018-05-18T17:53:32.998Z,8.97
2018-05-18T17:56:07.011Z,10.73
2018-05-18T17:58:36.187Z,9.03
2018-05-18T18:01:04.474Z,8.77
2018-05-18T18:03:34.800Z,8.30
2018-05-18T18:06:03.166Z,12.27
2018-05-18T18:08:31.548Z,11.10
2018-05-18T18:10:59.803Z,9.20
2018-05-18T18:13:29.960Z,8.93
2018-05-18T18:15:59.947Z,9.63
2018-05-18T18:18:29.312Z,11.07
2018-05-18T18:20:57.662Z,10.03
2018-05-18T18:23:26.836Z,10.17
2018-05-18T18:25:55.179Z,9.80
2018-05-18T18:28:25.632Z,9.07
2018-05-18T18:30:53.933Z,7.40
2018-05-18T18:33:24.585Z,9.30
2018-05-18T18:35:54.692Z,8.03
2018-05-18T18:38:22.941Z,10.60
2018-05-18T18:40:52.335Z,10.10
2018-05-18T18:43:25.576Z,12.17
2018-05-18T18:45:55.658Z,8.97
2018-05-18T18:48:23.945Z,9.27
2018-05-18T18:50:52.277Z,11.87
2018-05-18T18:53:21.531Z,9.80
2018-05-18T18:55:53.305Z,8.53
2018-05-18T18:58:22.478Z,9.17
2018-05-18T19:00:51.016Z,13.43
2018-05-18T19:03:23.977Z,10.97
2018-05-18T19:05:54.119Z,8.33
2018-05-18T19:23:52.386Z,9.73
2018-05-18T19:26:27.152Z,9.87
2018-05-18T19:28:59.722Z,9.30
2018-05-18T19:31:30.028Z,10.00
2018-05-18T19:33:58.456Z,11.23
2018-05-18T19:36:44.283Z,9.43
2018-05-18T19:39:38.660Z,8.77
2018-05-18T19:42:08.043Z,9.87
2018-05-18T19:44:45.728Z,10.10
2018-05-18T19:47:16.087Z,13.90
2018-05-18T19:49:44.452Z,11.37
2018-05-18T19:52:20.588Z,15.83
2018-05-18T19:54:55.680Z,16.40
2018-05-18T19:57:27.851Z,11.53
2018-05-18T20:00:01.444Z,9.20
2018-05-18T20:02:29.804Z,9.17
2018-05-18T20:05:03.007Z,11.63
2018-05-18T20:07:33.374Z,14.53
2018-05-18T20:10:02.699Z,11.70
2018-05-18T20:12:45.951Z,11.30
2018-05-18T20:15:20.088Z,12.60
2018-05-18T20:17:59.103Z,11.50
2018-05-18T20:20:32.275Z,13.17
2018-05-18T20:23:03.320Z,12.33
2018-05-18T20:25:33.415Z,12.43
2018-05-18T20:28:06.691Z,13.30
2018-05-18T20:30:36.083Z,10.33
2018-05-18T20:33:10.746Z,11.37
2018-05-18T20:35:47.477Z,11.57
2018-05-18T20:38:22.648Z,11.63
2018-05-18T20:40:52.256Z,13.47
2018-05-18T20:43:40.047Z,12.27
2018-05-18T20:46:11.809Z,19.43
2018-05-18T20:48:50.249Z,13.93
2018-05-18T20:51:19.552Z,17.00
2018-05-18T20:53:48.367Z,14.77
2018-05-18T20:56:18.510Z,10.20
2018-05-18T20:58:57.637Z,13.87
2018-05-18T21:01:27.770Z,15.27
2018-05-18T21:04:01.298Z,14.17
2018-05-18T21:06:30.574Z,12.93
2018-05-18T21:09:07.278Z,13.80
2018-05-18T21:11:36.840Z,10.70
2018-05-18T21:14:05.889Z,14.50
2018-05-18T21:16:34.235Z,13.43
2018-05-18T21:19:19.119Z,11.53
2018-05-18T21:21:53.251Z,13.23
2018-05-18T21:24:45.717Z,13.87
2018-05-18T21:27:16.202Z,12.43
2018-05-18T21:29:52.511Z,9.77
2018-05-18T21:32:33.830Z,12.60
2018-05-18T21:35:14.120Z,16.53
2018-05-18T21:37:56.936Z,12.97
2018-05-18T21:40:27.093Z,11.00
2018-05-18T21:42:57.303Z,10.63
2018-05-18T21:45:29.383Z,9.53
2018-05-18T21:48:08.542Z,12.40
2018-05-18T21:50:37.917Z,9.97
2018-05-18T21:53:13.310Z,15.60
2018-05-18T21:55:45.431Z,10.27
2018-05-18T21:58:28.722Z,12.43
2018-05-18T22:01:05.490Z,12.17
2018-05-18T22:03:38.665Z,9.33
2018-05-18T22:06:08.747Z,12.87
2018-05-18T22:08:40.185Z,13.03
2018-05-18T22:11:11.498Z,10.27
2018-05-18T22:13:46.351Z,16.87
2018-05-18T22:16:19.664Z,14.43
2018-05-18T22:18:49.929Z,12.50
2018-05-18T22:21:23.939Z,12.20
2018-05-18T22:23:57.040Z,12.93
2018-05-18T22:26:27.372Z,12.23
2018-05-18T22:28:59.571Z,14.17
2018-05-18T22:31:35.132Z,14.57
2018-05-18T22:34:10.914Z,10.10
2018-05-18T22:36:42.802Z,11.93
2018-05-18T22:39:22.594Z,13.97
2018-05-18T22:42:02.572Z,10.10
2018-05-18T22:44:34.834Z,15.97
2018-05-18T22:47:06.377Z,12.13
2018-05-18T22:49:39.950Z,12.90
2018-05-18T22:52:17.961Z,15.77
2018-05-18T22:55:00.755Z,10.30
2018-05-18T22:57:29.093Z,12.33
2018-05-18T22:59:57.435Z,14.53
2018-05-18T23:02:27.153Z,13.43
2018-05-18T23:05:07.399Z,9.70
2018-05-18T23:07:41.566Z,11.37
2018-05-18T23:10:10.899Z,11.77
2018-05-18T23:12:43.571Z,14.83
2018-05-18T23:15:18.039Z,12.37
2018-05-18T23:17:56.555Z,15.57
2018-05-18T23:20:30.678Z,11.90
2018-05-18T23:23:00.000Z,16.17
2018-05-18T23:25:28.287Z,17.33
2018-05-18T23:27:56.608Z,9.27
2018-05-18T23:30:27.616Z,10.90
2018-05-18T23:32:59.303Z,11.77
2018-05-18T23:35:28.372Z,12.03
2018-05-18T23:37:57.779Z,11.83
2018-05-18T23:40:27.148Z,12.63
2018-05-18T23:42:56.269Z,11.93
2018-05-18T23:45:24.544Z,11.13
2018-05-18T23:47:52.861Z,14.23
2018-05-18T23:50:21.923Z,12.43
2018-05-18T23:52:53.883Z,13.60
2018-05-18T23:55:27.344Z,9.27
2018-05-18T23:57:59.456Z,13.60
